createdAt,value
2022-10-01T00:01:18.254Z,215.32
2022-10-01T00:03:45.663Z,217.40
2022-10-01T00:06:20.438Z,213.52
2022-10-01T00:08:49.488Z,221.75
2022-10-01T00:11:21.108Z,216.27
2022-10-01T00:13:48.503Z,212.90
2022-10-01T00:16:17.852Z,208.18
2022-10-01T00:18:46.333Z,207.27
2022-10-01T00:21:16.136Z,204.50
2022-10-01T00:23:42.954Z,183.40
2022-10-01T00:26:12.819Z,206.60
2022-10-01T00:28:40.262Z,187.32
2022-10-01T00:31:10.617Z,185.00
2022-10-01T00:33:38.512Z,204.27
2022-10-01T00:36:06.907Z,189.25
2022-10-01T00:38:33.927Z,202.95
2022-10-01T00:41:01.314Z,189.57
2022-10-01T00:43:31.842Z,192.57
2022-10-01T00:46:04.521Z,196.80
2022-10-01T00:48:38.581Z,220.90
2022-10-01T00:51:06.630Z,222.98
2022-10-01T00:53:33.315Z,196.30
2022-10-01T00:55:59.990Z,213.02
2022-10-01T00:58:27.532Z,203.88
2022-10-01T01:00:57.002Z,203.18
2022-10-01T01:03:24.068Z,211.40
2022-10-01T01:05:50.639Z,218.02
2022-10-01T01:08:17.984Z,229.50
2022-10-01T01:11:23.331Z,218.23
2022-10-01T01:13:57.765Z,209.63
2022-10-01T01:19:09.461Z,188.30
2022-10-01T01:21:41.529Z,206.18
2022-10-01T01:24:45.726Z,213.40
2022-10-01T01:27:45.727Z,198.45
2022-10-01T01:30:16.570Z,194.52
2022-10-01T01:33:04.677Z,213.68
2022-10-01T01:35:36.492Z,189.35
2022-10-01T01:38:10.234Z,214.70
2022-10-01T01:40:40.730Z,201.85
2022-10-01T01:43:12.295Z,214.95
2022-10-01T01:45:40.314Z,207.45
2022-10-01T01:48:10.034Z,213.98
2022-10-01T01:50:44.532Z,209.93
2022-10-01T01:55:39.227Z,166.52
2022-10-01T01:58:06.154Z,200.80
2022-10-01T02:00:32.648Z,186.98
2022-10-01T02:02:59.637Z,187.07
2022-10-01T02:05:33.045Z,195.65
2022-10-01T02:08:23.837Z,201.43
2022-10-01T02:11:17.771Z,191.82
2022-10-01T02:14:00.085Z,207.40
2022-10-01T02:16:32.390Z,200.00
2022-10-01T02:19:11.931Z,214.70
2022-10-01T02:22:19.338Z,218.05
2022-10-01T02:24:52.129Z,197.88
2022-10-01T02:27:25.313Z,205.43
2022-10-01T02:29:55.532Z,221.30
2022-10-01T02:32:22.804Z,222.07
2022-10-01T02:34:50.494Z,218.43
2022-10-01T02:37:22.475Z,196.52
2022-10-01T02:39:52.089Z,222.75
2022-10-01T02:42:21.402Z,217.00
2022-10-01T02:44:51.531Z,199.60
2022-10-01T02:47:26.544Z,197.73
2022-10-01T02:49:53.731Z,197.60
2022-10-01T02:52:26.321Z,201.00
2022-10-01T02:54:55.391Z,206.77
2022-10-01T02:57:26.908Z,201.55
2022-10-01T02:59:59.106Z,196.05
2022-10-01T03:02:28.013Z,181.88
2022-10-01T03:04:57.236Z,181.40
2022-10-01T03:07:25.397Z,171.48
2022-10-01T03:09:52.172Z,175.35
2022-10-01T03:12:18.890Z,150.50
2022-10-01T03:14:46.474Z,168.32
2022-10-01T03:17:13.473Z,171.57
2022-10-01T03:19:40.409Z,180.50
2022-10-01T03:22:07.762Z,175.65
2022-10-01T03:24:34.523Z,166.88
2022-10-01T03:27:01.163Z,160.45
2022-10-01T03:29:27.774Z,165.57
2022-10-01T03:31:54.794Z,160.18
2022-10-01T03:34:21.991Z,149.00
2022-10-01T03:36:49.965Z,181.02
2022-10-01T03:39:16.848Z,152.88
2022-10-01T03:41:44.060Z,153.88
2022-10-01T03:44:10.891Z,168.70
2022-10-01T03:46:37.827Z,161.23
2022-10-01T03:49:04.659Z,160.00
2022-10-01T03:51:32.139Z,151.68
2022-10-01T03:53:59.688Z,156.27
2022-10-01T03:56:26.402Z,161.50
2022-10-01T03:58:52.875Z,153.00
2022-10-01T04:01:19.428Z,148.55
2022-10-01T04:03:46.391Z,153.25
2022-10-01T04:06:13.420Z,156.50
2022-10-01T04:08:39.951Z,148.57
2022-10-01T04:11:06.898Z,148.10
2022-10-01T04:13:34.657Z,162.20
2022-10-01T04:16:02.830Z,170.57
2022-10-01T04:18:29.598Z,161.45
2022-10-01T04:20:56.100Z,158.70
2022-10-01T04:23:22.683Z,170.30
2022-10-01T04:25:49.455Z,168.15
2022-10-01T04:28:16.475Z,187.15
2022-10-01T04:30:45.018Z,171.88
2022-10-01T04:33:14.851Z,189.68
2022-10-01T04:35:41.406Z,190.55
2022-10-01T04:38:14.110Z,180.70
2022-10-01T04:40:40.641Z,184.88
2022-10-01T04:43:09.619Z,179.65
2022-10-01T04:45:39.483Z,190.48
2022-10-01T04:48:06.216Z,191.45
2022-10-01T04:50:34.288Z,185.68
2022-10-01T04:53:00.794Z,194.85
2022-10-01T04:55:27.319Z,189.85
2022-10-01T04:57:53.895Z,171.73
2022-10-01T05:00:24.477Z,193.35
2022-10-01T05:02:51.529Z,171.63
2022-10-01T05:05:20.275Z,169.70
2022-10-01T05:07:47.483Z,165.90
2022-10-01T05:10:16.610Z,168.25
2022-10-01T05:12:43.385Z,176.98
2022-10-01T05:15:10.735Z,170.25
2022-10-01T05:17:37.289Z,174.73
2022-10-01T05:20:06.601Z,179.88
2022-10-01T05:22:33.621Z,158.45
2022-10-01T05:25:00.390Z,154.63
2022-10-01T05:27:27.437Z,137.48
2022-10-01T05:29:53.994Z,130.63
2022-10-01T05:32:20.513Z,125.72
2022-10-01T05:34:51.213Z,139.98
2022-10-01T05:37:20.007Z,131.70
2022-10-01T05:39:46.644Z,122.28
2022-10-01T05:42:13.129Z,118.55
2022-10-01T05:44:45.964Z,119.63
2022-10-01T05:47:16.778Z,115.75
2022-10-01T05:49:43.826Z,121.40
2022-10-01T05:52:11.202Z,129.23
2022-10-01T05:54:38.111Z,119.90
2022-10-01T05:57:05.634Z,119.45
2022-10-01T05:59:32.301Z,116.13
2022-10-01T06:01:58.994Z,115.15
2022-10-01T06:04:25.648Z,103.43
2022-10-01T06:06:53.724Z,106.13
2022-10-01T06:09:20.224Z,112.18
2022-10-01T06:11:51.244Z,107.45
2022-10-01T06:14:18.040Z,105.15
2022-10-01T06:16:44.756Z,99.47
2022-10-01T06:19:11.344Z,105.97
2022-10-01T06:21:38.147Z,107.75
2022-10-01T06:24:05.252Z,92.90
2022-10-01T06:26:31.882Z,109.13
2022-10-01T06:28:58.392Z,111.13
2022-10-01T06:31:25.239Z,107.97
2022-10-01T06:33:51.952Z,120.32
2022-10-01T06:36:18.456Z,112.53
2022-10-01T06:38:48.200Z,121.63
2022-10-01T06:41:14.924Z,117.18
2022-10-01T06:43:41.478Z,121.53
2022-10-01T06:46:08.068Z,130.15
2022-10-01T06:48:36.474Z,132.13
2022-10-01T06:51:04.076Z,133.57
2022-10-01T06:53:31.794Z,137.05
2022-10-01T06:56:04.667Z,143.35
2022-10-01T06:58:31.299Z,137.73
2022-10-01T07:01:02.641Z,138.48
2022-10-01T07:03:31.178Z,135.57
2022-10-01T07:06:02.436Z,134.77
2022-10-01T07:08:29.121Z,145.52
2022-10-01T07:11:01.189Z,140.15
2022-10-01T07:13:27.741Z,151.52
2022-10-01T07:15:54.226Z,157.27
2022-10-01T07:18:21.119Z,166.73
2022-10-01T07:20:47.664Z,158.50
2022-10-01T07:23:15.609Z,164.75
2022-10-01T07:25:43.873Z,167.30
2022-10-01T07:28:18.231Z,184.30
2022-10-01T07:31:00.946Z,178.55
2022-10-01T07:33:28.231Z,180.07
2022-10-01T07:35:55.073Z,191.40
2022-10-01T07:38:21.874Z,195.02
2022-10-01T07:40:52.742Z,207.65
2022-10-01T07:43:19.271Z,228.13
2022-10-01T07:45:58.260Z,231.77
2022-10-01T07:48:25.681Z,238.77
2022-10-01T07:50:52.940Z,235.13
2022-10-01T07:53:20.082Z,236.32
2022-10-01T07:55:46.687Z,243.88
2022-10-01T07:58:15.260Z,232.68
2022-10-01T08:00:43.522Z,234.23
2022-10-01T08:03:12.310Z,229.13
2022-10-01T08:05:41.321Z,246.00
2022-10-01T08:08:08.743Z,251.98
2022-10-01T08:10:37.685Z,245.02
2022-10-01T08:13:08.281Z,248.23
2022-10-01T08:15:35.355Z,250.75
2022-10-01T08:18:03.223Z,255.10
2022-10-01T08:20:30.286Z,258.13
2022-10-01T08:23:08.311Z,267.63
2022-10-01T08:25:35.052Z,270.75
2022-10-01T08:28:01.871Z,276.65
2022-10-01T08:30:29.020Z,278.02
2022-10-01T08:32:56.915Z,277.08
2022-10-01T08:35:24.345Z,274.77
2022-10-01T08:37:51.031Z,285.55
2022-10-01T08:40:21.346Z,287.08
2022-10-01T08:42:51.919Z,282.00
2022-10-01T08:45:57.131Z,268.50
2022-10-01T08:48:31.062Z,262.85
2022-10-01T08:50:57.551Z,282.75
2022-10-01T08:53:33.962Z,267.77
2022-10-01T08:56:02.448Z,266.45
2022-10-01T08:58:35.152Z,280.25
2022-10-01T09:01:01.790Z,300.73
2022-10-01T09:03:31.286Z,293.98
2022-10-01T09:06:16.207Z,291.35
2022-10-01T09:09:03.262Z,286.90
2022-10-01T09:11:42.584Z,283.52
2022-10-01T09:14:44.432Z,290.73
2022-10-01T09:17:49.855Z,287.83
2022-10-01T09:23:38.956Z,247.43
2022-10-01T09:26:11.211Z,273.00
2022-10-01T09:28:39.626Z,290.42
2022-10-01T09:31:08.946Z,316.83
2022-10-01T09:33:38.460Z,311.40
2022-10-01T09:36:16.557Z,321.83
2022-10-01T09:38:46.882Z,337.58
2022-10-01T09:41:14.706Z,338.50
2022-10-01T09:43:43.717Z,348.55
2022-10-01T09:46:15.191Z,357.63
2022-10-01T09:48:51.893Z,401.10
2022-10-01T09:51:27.450Z,402.65
2022-10-01T09:54:15.327Z,540.38
2022-10-01T09:56:56.561Z,415.80
2022-10-01T09:59:29.771Z,546.90
2022-10-01T10:01:59.836Z,419.58
2022-10-01T10:04:26.811Z,360.23
2022-10-01T10:07:05.260Z,340.38
2022-10-01T10:09:33.831Z,353.38
2022-10-01T10:12:00.798Z,387.83
2022-10-01T10:14:40.821Z,376.77
2022-10-01T10:17:13.966Z,368.77
2022-10-01T10:19:41.217Z,365.95
2022-10-01T10:22:23.241Z,348.75
2022-10-01T10:24:49.762Z,390.48
2022-10-01T10:27:28.525Z,305.40
2022-10-01T10:30:08.595Z,355.92
2022-10-01T10:32:35.180Z,362.42
2022-10-01T10:35:10.034Z,432.42
2022-10-01T10:37:42.547Z,694.15
2022-10-01T10:40:20.214Z,683.15
2022-10-01T10:42:49.165Z,614.20
2022-10-01T10:45:20.547Z,586.80
2022-10-01T10:47:52.739Z,372.45
2022-10-01T10:50:32.297Z,232.48
2022-10-01T10:52:59.373Z,246.75
2022-10-01T10:55:31.132Z,204.00
2022-10-01T10:58:16.300Z,195.80
2022-10-01T11:00:52.520Z,336.13
2022-10-01T11:03:26.348Z,209.23
2022-10-01T11:05:56.422Z,128.63
2022-10-01T11:08:26.138Z,122.32
2022-10-01T11:11:32.450Z,109.93
2022-10-01T11:14:09.500Z,132.65
2022-10-01T11:17:00.746Z,125.35
2022-10-01T11:20:10.742Z,127.38
2022-10-01T11:22:43.241Z,303.75
2022-10-01T11:25:19.413Z,165.00
2022-10-01T11:28:03.295Z,383.23
2022-10-01T11:30:42.215Z,188.60
2022-10-01T11:33:37.871Z,103.15
2022-10-01T11:36:29.829Z,63.78
2022-10-01T11:39:05.445Z,45.13
2022-10-01T11:41:39.784Z,51.97
2022-10-01T11:44:32.754Z,41.08
2022-10-01T11:47:08.712Z,33.30
2022-10-01T11:49:53.107Z,32.72
2022-10-01T11:52:37.618Z,36.88
2022-10-01T11:55:35.205Z,35.42
2022-10-01T11:58:48.971Z,36.55
2022-10-01T12:01:24.387Z,34.28
2022-10-01T12:03:53.825Z,30.42
2022-10-01T12:06:34.043Z,29.92
2022-10-01T12:09:35.402Z,29.48
2022-10-01T12:12:11.247Z,28.02
2022-10-01T12:14:44.351Z,29.48
2022-10-01T12:17:22.652Z,29.33
2022-10-01T12:19:52.068Z,29.42
2022-10-01T12:22:26.438Z,29.58
2022-10-01T12:24:53.838Z,36.08
2022-10-01T12:27:29.580Z,37.88
2022-10-01T12:30:04.366Z,29.98
2022-10-01T12:33:08.131Z,32.33
2022-10-01T12:35:58.894Z,34.35
2022-10-01T12:38:37.303Z,34.13
2022-10-01T12:41:42.070Z,33.33
2022-10-01T12:44:38.446Z,26.33
2022-10-01T12:47:16.133Z,27.70
2022-10-01T12:49:56.416Z,62.40
2022-10-01T12:52:47.659Z,79.30
2022-10-01T12:55:39.281Z,98.50
2022-10-01T12:58:24.548Z,133.23
2022-10-01T13:01:03.289Z,142.98
2022-10-01T13:03:51.196Z,143.95
2022-10-01T13:07:14.933Z,315.50
2022-10-01T13:10:00.030Z,67.05
2022-10-01T13:12:44.748Z,96.68
2022-10-01T13:15:20.816Z,40.03
2022-10-01T13:17:58.269Z,34.05
2022-10-01T13:20:41.113Z,26.83
2022-10-01T13:23:08.642Z,26.13
2022-10-01T13:26:22.952Z,23.73
2022-10-01T13:29:11.358Z,19.70
2022-10-01T13:31:37.872Z,22.30
2022-10-01T13:34:42.878Z,22.67
2022-10-01T13:37:10.281Z,20.95
2022-10-01T13:39:41.956Z,19.27
2022-10-01T13:42:18.367Z,22.15
2022-10-01T13:44:45.065Z,20.20
2022-10-01T13:47:13.340Z,19.60
2022-10-01T13:49:42.936Z,20.50
2022-10-01T13:52:19.385Z,20.13
2022-10-01T13:54:56.394Z,22.92
2022-10-01T13:57:37.993Z,22.08
2022-10-01T14:00:16.573Z,41.85
2022-10-01T14:03:06.931Z,44.38
2022-10-01T14:05:37.821Z,56.15
2022-10-01T14:08:25.850Z,104.35
2022-10-01T14:11:20.435Z,51.83
2022-10-01T14:16:46.229Z,52.13
2022-10-01T14:19:21.534Z,61.38
2022-10-01T14:22:13.216Z,47.92
2022-10-01T14:25:08.479Z,29.10
2022-10-01T14:27:53.173Z,30.73
2022-10-01T14:30:50.483Z,31.67
2022-10-01T14:34:04.222Z,36.63
2022-10-01T14:36:37.516Z,36.38
2022-10-01T14:39:15.831Z,37.05
2022-10-01T14:41:42.851Z,44.45
2022-10-01T14:44:43.807Z,33.67
2022-10-01T14:47:25.118Z,29.77
2022-10-01T14:49:53.775Z,32.83
2022-10-01T14:52:29.533Z,30.20
2022-10-01T14:55:01.335Z,30.90
2022-10-01T14:57:33.230Z,31.85
2022-10-01T15:00:03.122Z,34.22
2022-10-01T15:02:29.662Z,29.35
2022-10-01T15:04:57.488Z,30.15
2022-10-01T15:07:27.997Z,33.20
2022-10-01T15:10:06.024Z,30.77
2022-10-01T15:12:38.493Z,27.77
2022-10-01T15:15:15.352Z,34.13
2022-10-01T15:17:42.494Z,48.53
2022-10-01T15:20:12.129Z,44.00
2022-10-01T15:22:39.680Z,36.20
2022-10-01T15:25:06.832Z,35.58
2022-10-01T15:27:33.746Z,39.92
2022-10-01T15:30:00.385Z,40.03
2022-10-01T15:32:28.437Z,38.70
2022-10-01T15:34:58.126Z,39.03
2022-10-01T15:37:37.902Z,35.10
2022-10-01T15:40:09.674Z,32.42
2022-10-01T15:42:36.957Z,36.85
2022-10-01T15:45:09.319Z,63.05
2022-10-01T15:47:47.783Z,62.10
2022-10-01T15:50:18.819Z,122.03
2022-10-01T15:52:54.403Z,130.57
2022-10-01T15:55:23.742Z,119.22
2022-10-01T15:58:15.113Z,141.90
2022-10-01T16:00:43.883Z,119.07
2022-10-01T16:03:31.588Z,123.43
2022-10-01T16:06:01.918Z,104.78
2022-10-01T16:08:35.361Z,98.63
2022-10-01T16:11:16.041Z,128.18
2022-10-01T16:13:49.043Z,161.25
2022-10-01T16:16:21.338Z,163.30
2022-10-01T16:18:54.045Z,187.32
2022-10-01T16:21:21.756Z,187.75
2022-10-01T16:23:54.023Z,204.35
2022-10-01T16:26:38.188Z,210.75
2022-10-01T16:29:14.225Z,219.73
2022-10-01T16:31:44.338Z,232.68
2022-10-01T16:34:16.310Z,217.40
2022-10-01T16:36:43.183Z,195.52
2022-10-01T16:39:12.540Z,176.25
2022-10-01T16:41:40.767Z,162.07
2022-10-01T16:44:07.415Z,164.00
2022-10-01T16:46:34.081Z,137.45
2022-10-01T16:49:00.779Z,125.82
2022-10-01T16:51:27.362Z,123.60
2022-10-01T16:53:54.974Z,134.02
2022-10-01T16:56:26.291Z,122.93
2022-10-01T16:58:53.756Z,136.40
2022-10-01T17:01:20.381Z,137.05
2022-10-01T17:03:46.964Z,142.20
2022-10-01T17:06:13.468Z,137.38
2022-10-01T17:08:40.008Z,122.88
2022-10-01T17:11:10.671Z,147.13
2022-10-01T17:13:39.079Z,147.40
2022-10-01T17:16:05.907Z,179.45
2022-10-01T17:18:32.628Z,181.95
2022-10-01T17:20:59.598Z,196.77
2022-10-01T17:23:26.078Z,192.40
2022-10-01T17:25:52.623Z,204.27
2022-10-01T17:28:20.620Z,206.98
2022-10-01T17:30:48.778Z,214.50
2022-10-01T17:33:19.141Z,210.70
2022-10-01T17:35:52.235Z,239.48
2022-10-01T17:38:19.456Z,239.50
2022-10-01T17:40:46.291Z,255.88
2022-10-01T17:43:15.223Z,243.45
2022-10-01T17:45:42.550Z,250.38
2022-10-01T17:48:09.697Z,264.65
2022-10-01T17:50:43.622Z,255.48
2022-10-01T17:53:11.555Z,236.57
2022-10-01T17:55:42.132Z,258.90
2022-10-01T17:58:08.682Z,266.60
2022-10-01T18:00:35.479Z,279.42
2022-10-01T18:03:02.136Z,284.83
2022-10-01T18:05:28.696Z,276.08
2022-10-01T18:07:55.483Z,292.55
2022-10-01T18:10:21.974Z,285.02
2022-10-01T18:12:48.555Z,294.73
2022-10-01T18:15:15.526Z,288.65
2022-10-01T18:17:43.784Z,294.17
2022-10-01T18:20:18.955Z,290.80
2022-10-01T18:22:45.478Z,293.42
2022-10-01T18:25:13.933Z,289.50
2022-10-01T18:27:40.468Z,296.90
2022-10-01T18:30:07.680Z,284.50
2022-10-01T18:32:40.696Z,234.00
2022-10-01T18:35:27.748Z,242.82
2022-10-01T18:38:20.666Z,254.65
2022-10-01T18:40:56.673Z,264.63
2022-10-01T18:43:25.926Z,269.48
2022-10-01T18:46:19.836Z,282.75
2022-10-01T18:49:03.828Z,286.98
2022-10-01T18:52:01.072Z,291.10
2022-10-01T18:54:27.515Z,272.98
2022-10-01T18:57:05.212Z,291.40
2022-10-01T18:59:35.650Z,307.73
2022-10-01T19:02:23.664Z,322.40
2022-10-01T19:05:23.308Z,334.13
2022-10-01T19:08:17.623Z,346.00
2022-10-01T19:11:14.583Z,364.37
2022-10-01T19:14:25.571Z,361.05
2022-10-01T19:17:06.796Z,372.63
2022-10-01T19:19:52.911Z,370.20
2022-10-01T19:22:42.483Z,336.85
2022-10-01T19:25:20.468Z,303.90
2022-10-01T19:28:01.407Z,297.17
2022-10-01T19:30:37.836Z,285.75
2022-10-01T19:33:13.167Z,294.58
2022-10-01T19:35:42.236Z,303.33
2022-10-01T19:38:23.895Z,342.73
2022-10-01T19:41:02.589Z,311.42
2022-10-01T19:43:55.386Z,337.48
2022-10-01T19:46:40.082Z,339.88
2022-10-01T19:49:09.927Z,370.83
2022-10-01T19:51:40.808Z,362.95
2022-10-01T19:54:16.960Z,337.80
2022-10-01T19:56:47.883Z,358.52
2022-10-01T19:59:19.818Z,365.88
2022-10-01T20:01:52.445Z,353.23
2022-10-01T20:04:51.682Z,380.83
2022-10-01T20:07:24.197Z,378.35
2022-10-01T20:10:13.648Z,397.52
2022-10-01T20:12:50.882Z,391.10
2022-10-01T20:15:42.444Z,396.27
2022-10-01T20:18:14.810Z,404.52
2022-10-01T20:20:43.889Z,422.35
2022-10-01T20:23:34.989Z,404.92
2022-10-01T20:26:22.574Z,418.75
2022-10-01T20:29:10.465Z,389.90
2022-10-01T20:32:14.877Z,396.38
2022-10-01T20:35:00.556Z,385.20
2022-10-01T20:37:57.090Z,379.58
2022-10-01T20:40:37.284Z,377.38
2022-10-01T20:43:22.414Z,387.55
2022-10-01T20:45:53.687Z,374.40
2022-10-01T20:48:25.350Z,374.75
2022-10-01T20:50:55.505Z,364.98
2022-10-01T20:53:45.235Z,383.33
2022-10-01T20:56:16.070Z,372.45
2022-10-01T20:58:53.649Z,361.42
2022-10-01T21:01:23.905Z,385.02
2022-10-01T21:04:02.803Z,378.35
2022-10-01T21:06:43.837Z,372.80
2022-10-01T21:09:19.061Z,358.20
2022-10-01T21:12:02.139Z,376.13
2022-10-01T21:14:54.575Z,353.50
2022-10-01T21:17:57.559Z,338.45
2022-10-01T21:21:06.432Z,320.77
2022-10-01T21:23:54.152Z,309.90
2022-10-01T21:26:47.107Z,307.05
2022-10-01T21:29:44.893Z,299.50
2022-10-01T21:32:33.432Z,271.52
2022-10-01T21:35:24.099Z,282.10
2022-10-01T21:37:56.678Z,288.63
2022-10-01T21:40:40.622Z,293.17
2022-10-01T21:43:12.222Z,288.87
2022-10-01T21:45:54.988Z,300.85
2022-10-01T21:48:21.463Z,297.05
2022-10-01T21:51:07.346Z,305.15
2022-10-01T21:53:57.018Z,293.67
2022-10-01T21:56:26.627Z,286.52
2022-10-01T21:59:05.591Z,289.92
2022-10-01T22:01:44.104Z,283.23
2022-10-01T22:04:24.761Z,283.33
2022-10-01T22:07:05.440Z,278.42
2022-10-01T22:09:44.403Z,268.00
2022-10-01T22:12:12.149Z,271.13
2022-10-01T22:14:40.756Z,271.60
2022-10-01T22:17:22.491Z,264.92
2022-10-01T22:19:52.254Z,258.67
2022-10-01T22:22:38.662Z,262.52
2022-10-01T22:25:07.692Z,255.05
2022-10-01T22:27:37.094Z,265.15
2022-10-01T22:30:13.480Z,269.70
2022-10-01T22:32:50.926Z,261.45
2022-10-01T22:35:24.543Z,247.75
2022-10-01T22:38:02.789Z,240.60
2022-10-01T22:40:35.969Z,225.88
2022-10-01T22:43:07.874Z,227.98
2022-10-01T22:45:42.145Z,225.60
2022-10-01T22:48:16.808Z,213.73
2022-10-01T22:50:54.394Z,200.43
2022-10-01T22:53:45.556Z,192.88
2022-10-01T22:56:16.610Z,180.05
2022-10-01T22:59:26.690Z,155.05
2022-10-01T23:02:19.380Z,122.55
2022-10-01T23:05:07.463Z,105.15
2022-10-01T23:07:36.929Z,105.85
2022-10-01T23:10:16.328Z,104.05
2022-10-01T23:13:00.965Z,93.28
2022-10-01T23:15:32.335Z,85.60
2022-10-01T23:18:22.851Z,83.80
2022-10-01T23:21:15.935Z,78.47
2022-10-01T23:23:54.080Z,78.72
2022-10-01T23:26:33.197Z,77.88
2022-10-01T23:29:16.015Z,78.65
2022-10-01T23:31:54.861Z,74.40
2022-10-01T23:34:30.413Z,78.95
2022-10-01T23:37:13.738Z,81.10
2022-10-01T23:40:01.439Z,82.88
2022-10-01T23:42:38.937Z,82.78
2022-10-01T23:45:18.459Z,88.40
2022-10-01T23:48:03.399Z,92.28
2022-10-01T23:53:27.792Z,67.85
2022-10-01T23:56:27.651Z,73.28
2022-10-01T23:59:01.759Z,75.80
